createdAt,value
2022-12-27T00:01:12.368Z,101319.06
2022-12-27T00:03:41.249Z,101325.84
2022-12-27T00:06:11.183Z,101323.25
2022-12-27T00:08:39.146Z,101322.59
2022-12-27T00:11:09.263Z,101318.97
2022-12-27T00:13:38.645Z,101316.41
2022-12-27T00:16:08.648Z,101317.19
2022-12-27T00:18:37.323Z,101301.94
2022-12-27T00:21:06.508Z,101294.47
2022-12-27T00:23:37.429Z,101295.31
2022-12-27T00:26:07.897Z,101304.66
2022-12-27T00:28:36.441Z,101294.34
2022-12-27T00:31:06.596Z,101293.47
2022-12-27T00:33:36.502Z,101303.13
2022-12-27T00:36:07.038Z,101305.75
2022-12-27T00:38:35.967Z,101304.63
2022-12-27T00:41:04.650Z,101305.16
2022-12-27T00:43:32.672Z,101298.63
2022-12-27T00:46:00.693Z,101305.56
2022-12-27T00:48:30.199Z,101300.25
2022-12-27T00:51:03.444Z,101299.47
2022-12-27T00:53:32.181Z,101296.84
2022-12-27T00:56:00.601Z,101290.78
2022-12-27T00:58:28.648Z,101273.81
2022-12-27T01:00:56.624Z,101291.56
2022-12-27T01:03:24.566Z,101297.59
2022-12-27T01:05:53.874Z,101298.31
2022-12-27T01:08:22.869Z,101293.19
2022-12-27T01:10:51.646Z,101291.56
2022-12-27T01:13:19.603Z,101288.25
2022-12-27T01:15:47.521Z,101278.00
2022-12-27T01:18:15.429Z,101289.97
2022-12-27T01:20:43.371Z,101282.34
2022-12-27T01:23:12.704Z,101278.16
2022-12-27T01:25:40.759Z,101263.81
2022-12-27T01:28:08.731Z,101249.22
2022-12-27T01:30:36.755Z,101244.22
2022-12-27T01:33:04.707Z,101243.44
2022-12-27T01:35:32.623Z,101218.13
2022-12-27T01:38:00.556Z,101233.75
2022-12-27T01:40:29.884Z,101239.22
2022-12-27T01:42:57.226Z,101237.38
2022-12-27T01:45:26.690Z,101233.97
2022-12-27T01:48:00.789Z,101241.69
2022-12-27T01:50:33.648Z,101248.75
2022-12-27T01:53:09.824Z,101255.53
2022-12-27T01:55:45.340Z,101244.41
2022-12-27T01:58:18.823Z,101244.16
2022-12-27T02:00:49.165Z,101248.44
2022-12-27T02:03:21.583Z,101233.91
2022-12-27T02:05:50.869Z,101239.91
2022-12-27T02:08:31.823Z,101228.03
2022-12-27T02:11:01.899Z,101227.97
2022-12-27T02:13:33.019Z,101228.75
2022-12-27T02:16:01.394Z,101225.44
2022-12-27T02:18:29.427Z,101219.34
2022-12-27T02:21:26.946Z,101229.63
2022-12-27T02:24:26.807Z,101234.00
2022-12-27T02:27:02.764Z,101225.53
2022-12-27T02:29:51.663Z,101238.16
2022-12-27T02:32:25.594Z,101239.13
2022-12-27T02:35:05.173Z,101227.25
2022-12-27T02:37:37.652Z,101231.66
2022-12-27T02:40:26.924Z,101216.41
2022-12-27T02:43:13.024Z,101221.56
2022-12-27T02:46:05.230Z,101220.28
2022-12-27T02:48:50.799Z,101216.97
2022-12-27T02:51:56.056Z,101219.53
2022-12-27T02:54:56.201Z,101210.94
2022-12-27T02:57:34.230Z,101212.47
2022-12-27T03:00:28.034Z,101208.97
2022-12-27T03:03:24.974Z,101207.19
2022-12-27T03:06:31.501Z,101212.25
2022-12-27T03:09:08.706Z,101209.88
2022-12-27T03:12:05.217Z,101199.38
2022-12-27T03:14:57.227Z,101206.16
2022-12-27T03:17:31.678Z,101214.53
2022-12-27T03:20:22.563Z,101218.13
2022-12-27T03:23:10.731Z,101219.84
2022-12-27T03:25:41.158Z,101217.41
2022-12-27T03:28:30.982Z,101215.78
2022-12-27T03:31:27.069Z,101199.38
2022-12-27T03:34:04.616Z,101199.38
2022-12-27T03:36:52.842Z,101200.09
2022-12-27T03:39:27.604Z,101194.81
2022-12-27T03:42:13.785Z,101196.31
2022-12-27T03:44:41.950Z,101203.13
2022-12-27T03:47:18.261Z,101203.84
2022-12-27T03:49:51.460Z,101198.72
2022-12-27T03:52:26.491Z,101195.97
2022-12-27T03:54:55.338Z,101194.09
2022-12-27T03:57:26.237Z,101197.50
2022-12-27T03:59:54.284Z,101193.22
2022-12-27T04:02:22.447Z,101185.34
2022-12-27T04:04:51.221Z,101188.84
2022-12-27T04:07:20.610Z,101194.88
2022-12-27T04:10:05.871Z,101185.69
2022-12-27T04:12:51.444Z,101184.84
2022-12-27T04:15:37.052Z,101185.53
2022-12-27T04:18:23.136Z,101181.22
2022-12-27T04:21:08.632Z,101166.59
2022-12-27T04:23:55.328Z,101164.13
2022-12-27T04:26:40.498Z,101152.16
2022-12-27T04:29:27.091Z,101181.81
2022-12-27T04:32:12.463Z,101204.78
2022-12-27T04:34:46.452Z,101176.66
2022-12-27T04:37:16.692Z,101206.19
2022-12-27T04:40:09.897Z,101204.38
2022-12-27T04:43:09.539Z,101211.19
2022-12-27T04:45:55.151Z,101228.97
2022-12-27T04:48:40.499Z,101224.63
2022-12-27T04:51:27.830Z,101218.91
2022-12-27T04:54:13.408Z,101228.44
2022-12-27T04:56:42.711Z,101213.94
2022-12-27T04:59:28.005Z,101203.16
2022-12-27T05:02:05.099Z,101197.97
2022-12-27T05:04:35.982Z,101197.88
2022-12-27T05:07:24.839Z,101189.97
2022-12-27T05:10:10.527Z,101188.78
2022-12-27T05:12:57.473Z,101192.28
2022-12-27T05:15:25.384Z,101187.16
2022-12-27T05:17:53.338Z,101181.22
2022-12-27T05:20:21.439Z,101166.00
2022-12-27T05:23:15.279Z,101166.88
2022-12-27T05:25:44.141Z,101161.72
2022-12-27T05:28:14.164Z,101163.34
2022-12-27T05:30:43.433Z,101176.03
2022-12-27T05:33:11.652Z,101175.19
2022-12-27T05:35:40.184Z,101183.03
2022-12-27T05:38:08.171Z,101188.25
2022-12-27T05:40:36.282Z,101187.84
2022-12-27T05:43:05.506Z,101183.34
2022-12-27T05:45:34.942Z,101184.81
2022-12-27T05:48:02.886Z,101184.69
2022-12-27T05:50:30.818Z,101182.72
2022-12-27T05:52:58.760Z,101162.44
2022-12-27T05:55:26.689Z,101152.97
2022-12-27T05:57:54.623Z,101155.59
2022-12-27T06:00:22.690Z,101130.81
2022-12-27T06:02:52.121Z,101169.25
2022-12-27T06:05:20.228Z,101197.28
2022-12-27T06:07:48.177Z,101202.25
2022-12-27T06:10:16.108Z,101207.94
2022-12-27T06:12:44.027Z,101207.56
2022-12-27T06:15:12.995Z,101196.97
2022-12-27T06:17:41.081Z,101200.06
2022-12-27T06:20:11.014Z,101207.56
2022-12-27T06:22:38.976Z,101215.09
2022-12-27T06:25:12.407Z,101218.97
2022-12-27T06:27:42.205Z,101179.88
2022-12-27T06:30:12.346Z,101177.53
2022-12-27T06:32:40.306Z,101183.53
2022-12-27T06:35:11.328Z,101176.34
2022-12-27T06:37:39.355Z,101179.47
2022-12-27T06:40:08.573Z,101175.78
2022-12-27T06:42:36.505Z,101185.28
2022-12-27T06:45:06.028Z,101189.31
2022-12-27T06:47:34.157Z,101192.72
2022-12-27T06:50:02.091Z,101193.25
2022-12-27T06:52:31.409Z,101189.72
2022-12-27T06:54:59.358Z,101185.47
2022-12-27T06:57:27.278Z,101181.03
2022-12-27T06:59:55.191Z,101169.47
2022-12-27T07:02:23.278Z,101172.78
2022-12-27T07:04:51.247Z,101168.81
2022-12-27T07:07:19.168Z,101162.66
2022-12-27T07:09:48.471Z,101169.31
2022-12-27T07:12:16.402Z,101160.28
2022-12-27T07:14:44.327Z,101146.91
2022-12-27T07:17:12.322Z,101160.94
2022-12-27T07:19:40.322Z,101164.09
2022-12-27T07:22:08.246Z,101158.59
2022-12-27T07:24:36.201Z,101157.25
2022-12-27T07:27:05.658Z,101154.69
2022-12-27T07:29:33.650Z,101157.63
2022-12-27T07:32:01.649Z,101156.28
2022-12-27T07:34:29.725Z,101156.91
2022-12-27T07:36:57.643Z,101162.53
2022-12-27T07:39:25.615Z,101156.56
2022-12-27T07:41:53.519Z,101155.22
2022-12-27T07:44:22.804Z,101156.59
2022-12-27T07:46:51.259Z,101154.50
2022-12-27T07:49:19.479Z,101153.56
2022-12-27T07:51:47.523Z,101156.28
2022-12-27T07:54:15.710Z,101136.84
2022-12-27T07:56:43.710Z,101156.38
2022-12-27T07:59:13.845Z,101151.03
2022-12-27T08:01:57.181Z,101153.22
2022-12-27T08:04:25.288Z,101149.16
2022-12-27T08:06:53.440Z,101145.72
2022-12-27T08:09:29.424Z,101148.00
2022-12-27T08:11:57.391Z,101143.38
2022-12-27T08:14:25.784Z,101147.38
2022-12-27T08:16:55.275Z,101147.28
2022-12-27T08:19:23.223Z,101139.03
2022-12-27T08:21:51.139Z,101135.84
2022-12-27T08:24:19.065Z,101131.69
2022-12-27T08:26:47.004Z,101122.63
2022-12-27T08:29:14.932Z,101112.94
2022-12-27T08:31:42.916Z,101120.25
2022-12-27T08:34:12.239Z,101105.41
2022-12-27T08:36:56.420Z,101112.44
2022-12-27T08:39:24.704Z,101121.28
2022-12-27T08:41:54.153Z,101130.94
2022-12-27T08:44:22.207Z,101114.81
2022-12-27T08:46:50.350Z,101123.06
2022-12-27T08:49:19.757Z,101135.41
2022-12-27T08:51:47.693Z,101132.44
2022-12-27T08:54:15.645Z,101110.00
2022-12-27T08:56:43.574Z,101110.81
2022-12-27T08:59:11.491Z,101116.75
2022-12-27T09:01:39.591Z,101108.66
2022-12-27T09:04:07.980Z,101111.97
2022-12-27T09:06:37.303Z,101108.59
2022-12-27T09:09:05.407Z,101093.09
2022-12-27T09:11:35.171Z,101089.13
2022-12-27T09:14:05.174Z,101089.66
2022-12-27T09:16:34.313Z,101092.34
2022-12-27T09:19:02.928Z,101092.34
2022-12-27T09:21:32.756Z,101093.69
2022-12-27T09:24:02.249Z,101086.44
2022-12-27T09:26:31.867Z,101076.97
2022-12-27T09:29:00.304Z,101073.38
2022-12-27T09:31:29.211Z,101069.03
2022-12-27T09:33:57.969Z,101074.34
2022-12-27T09:36:27.658Z,101063.94
2022-12-27T09:38:57.401Z,101067.78
2022-12-27T09:44:35.119Z,101046.25
2022-12-27T09:47:10.003Z,101070.28
2022-12-27T09:49:41.028Z,101065.59
2022-12-27T09:52:14.586Z,101078.63
2022-12-27T09:55:00.920Z,101082.97
2022-12-27T09:57:37.247Z,101088.78
2022-12-27T10:00:13.307Z,101087.28
2022-12-27T10:02:41.653Z,101085.53
2022-12-27T10:05:21.290Z,101077.09
2022-12-27T10:08:00.775Z,101076.97
2022-12-27T10:10:40.073Z,101068.53
2022-12-27T10:13:23.732Z,101080.16
2022-12-27T10:15:58.454Z,101079.47
2022-12-27T10:18:42.117Z,101061.88
2022-12-27T10:21:23.334Z,101068.16
2022-12-27T10:23:56.345Z,101056.13
2022-12-27T10:26:24.762Z,101046.25
2022-12-27T10:28:57.631Z,101040.88
2022-12-27T10:31:26.776Z,101039.06
2022-12-27T10:33:55.686Z,101038.59
2022-12-27T10:36:26.372Z,101023.72
2022-12-27T10:38:54.557Z,101020.16
2022-12-27T10:41:33.685Z,101022.38
2022-12-27T10:44:03.151Z,101025.91
2022-12-27T10:46:34.013Z,100992.59
2022-12-27T10:49:22.010Z,101023.22
2022-12-27T10:51:52.396Z,100992.34
2022-12-27T10:54:23.918Z,100995.72
2022-12-27T10:56:52.148Z,101002.22
2022-12-27T10:59:23.449Z,100993.53
2022-12-27T11:02:16.487Z,100996.84
2022-12-27T11:04:58.439Z,100996.84
2022-12-27T11:07:31.432Z,100975.91
2022-12-27T11:10:08.999Z,100989.28
2022-12-27T11:12:36.929Z,100983.78
2022-12-27T11:15:18.737Z,100985.38
2022-12-27T11:17:48.648Z,100990.13
2022-12-27T11:20:26.000Z,100986.44
2022-12-27T11:22:57.235Z,100987.28
2022-12-27T11:25:27.212Z,100995.25
2022-12-27T11:27:59.106Z,101005.19
2022-12-27T11:30:31.416Z,101002.19
2022-12-27T11:33:04.997Z,101007.78
2022-12-27T11:35:37.499Z,101011.88
2022-12-27T11:38:05.561Z,101008.19
2022-12-27T11:40:35.888Z,101013.19
2022-12-27T11:43:09.303Z,100995.69
2022-12-27T11:45:42.196Z,100994.56
2022-12-27T11:48:22.202Z,100984.06
2022-12-27T11:51:20.523Z,100989.56
2022-12-27T11:54:07.248Z,100993.00
2022-12-27T11:56:36.718Z,100999.22
2022-12-27T11:59:33.419Z,100994.97
2022-12-27T12:02:32.137Z,100999.03
2022-12-27T12:05:39.136Z,100996.63
2022-12-27T12:08:37.951Z,100985.97
2022-12-27T12:11:16.258Z,100999.69
2022-12-27T12:14:16.820Z,100991.75
2022-12-27T12:17:01.508Z,101007.03
2022-12-27T12:19:46.690Z,101001.50
2022-12-27T12:22:34.932Z,101011.09
2022-12-27T12:25:31.107Z,101018.31
2022-12-27T12:28:56.888Z,101020.16
2022-12-27T12:31:34.219Z,101014.13
2022-12-27T12:34:18.786Z,101004.91
2022-12-27T12:37:11.554Z,101019.06
2022-12-27T12:39:56.124Z,101018.50
2022-12-27T12:42:38.397Z,101027.72
2022-12-27T12:45:26.051Z,101034.84
2022-12-27T12:48:22.752Z,101042.13
2022-12-27T12:51:18.492Z,101035.06
2022-12-27T12:54:03.475Z,101038.00
2022-12-27T12:56:48.780Z,101049.38
2022-12-27T12:59:39.133Z,101047.03
2022-12-27T13:02:35.061Z,101046.41
2022-12-27T13:05:13.749Z,101049.94
2022-12-27T13:08:00.742Z,101049.94
2022-12-27T13:10:51.310Z,101060.28
2022-12-27T13:13:27.403Z,101065.56
2022-12-27T13:16:02.706Z,101054.50
2022-12-27T13:18:41.529Z,101078.25
2022-12-27T13:21:20.600Z,101086.06
2022-12-27T13:24:00.804Z,101076.25
2022-12-27T13:26:41.855Z,101067.38
2022-12-27T13:29:37.299Z,101080.47
2022-12-27T13:32:15.254Z,101088.94
2022-12-27T13:34:55.192Z,101086.84
2022-12-27T13:37:37.712Z,101097.34
2022-12-27T13:40:25.165Z,101096.00
2022-12-27T13:43:16.006Z,101093.56
2022-12-27T13:46:00.526Z,101108.75
2022-12-27T13:48:56.616Z,101102.06
2022-12-27T13:51:42.332Z,101110.28
2022-12-27T13:54:39.653Z,101106.84
2022-12-27T13:57:23.050Z,101102.56
2022-12-27T14:00:04.362Z,101119.50
2022-12-27T14:03:13.895Z,101122.25
2022-12-27T14:06:35.241Z,101120.78
2022-12-27T14:09:25.087Z,101133.13
2022-12-27T14:12:05.785Z,101127.31
2022-12-27T14:14:37.760Z,101121.56
2022-12-27T14:17:21.859Z,101127.75
2022-12-27T14:20:19.568Z,101135.06
2022-12-27T14:23:01.390Z,101123.13
2022-12-27T14:26:17.033Z,101139.34
2022-12-27T14:29:23.843Z,101142.97
2022-12-27T14:32:38.149Z,101132.34
2022-12-27T14:35:42.863Z,101141.81
2022-12-27T14:38:58.150Z,101153.34
2022-12-27T14:41:52.597Z,101123.13
2022-12-27T14:45:02.374Z,101159.00
2022-12-27T14:47:52.832Z,101156.88
2022-12-27T14:50:49.557Z,101172.59
2022-12-27T14:53:54.439Z,101172.28
2022-12-27T14:56:33.528Z,101170.38
2022-12-27T14:59:19.167Z,101173.94
2022-12-27T15:01:58.278Z,101173.03
2022-12-27T15:05:07.339Z,101187.63
2022-12-27T15:07:58.353Z,101184.09
2022-12-27T15:10:46.366Z,101186.53
2022-12-27T15:13:16.719Z,101189.91
2022-12-27T15:15:54.545Z,101199.88
2022-12-27T15:18:41.640Z,101203.25
2022-12-27T15:21:25.167Z,101217.56
2022-12-27T15:23:56.125Z,101216.38
2022-12-27T15:26:33.655Z,101221.25
2022-12-27T15:29:17.813Z,101226.53
2022-12-27T15:31:57.206Z,101222.69
2022-12-27T15:34:42.294Z,101226.91
2022-12-27T15:37:43.662Z,101225.88
2022-12-27T15:40:30.011Z,101236.31
2022-12-27T15:43:02.445Z,101223.97
2022-12-27T15:45:45.158Z,101246.44
2022-12-27T15:48:59.557Z,101249.25
2022-12-27T15:51:36.530Z,101246.22
2022-12-27T15:54:26.384Z,101248.03
2022-12-27T15:57:19.210Z,101247.75
2022-12-27T15:59:51.783Z,101248.69
2022-12-27T16:02:26.806Z,101250.09
2022-12-27T16:04:57.163Z,101256.25
2022-12-27T16:08:16.230Z,101255.69
2022-12-27T16:10:51.379Z,101254.50
2022-12-27T16:13:27.680Z,101256.44
2022-12-27T16:15:57.043Z,101262.66
2022-12-27T16:19:00.032Z,101263.53
2022-12-27T16:21:37.587Z,101256.13
2022-12-27T16:24:11.716Z,101274.97
2022-12-27T16:26:47.737Z,101265.78
2022-12-27T16:29:17.938Z,101273.41
2022-12-27T16:31:49.292Z,101274.84
2022-12-27T16:34:23.989Z,101286.78
2022-12-27T16:36:54.863Z,101291.59
2022-12-27T16:39:42.183Z,101277.22
2022-12-27T16:42:10.391Z,101285.84
2022-12-27T16:44:54.130Z,101281.97
2022-12-27T16:47:44.115Z,101271.91
2022-12-27T16:50:54.737Z,101283.00
2022-12-27T16:53:46.212Z,101265.84
2022-12-27T16:56:22.171Z,101290.66
2022-12-27T16:58:50.834Z,101281.13
2022-12-27T17:02:01.870Z,101291.91
2022-12-27T17:04:53.788Z,101307.78
2022-12-27T17:07:43.948Z,101312.38
2022-12-27T17:10:35.435Z,101295.22
2022-12-27T17:13:11.888Z,101302.31
2022-12-27T17:15:49.800Z,101308.34
2022-12-27T17:18:27.713Z,101317.97
2022-12-27T17:21:04.803Z,101313.25
2022-12-27T17:23:38.682Z,101317.06
2022-12-27T17:26:51.102Z,101320.41
2022-12-27T17:29:47.027Z,101326.75
2022-12-27T17:32:30.617Z,101337.19
2022-12-27T17:35:08.265Z,101326.00
2022-12-27T17:37:44.040Z,101318.50
2022-12-27T17:40:26.974Z,101331.41
2022-12-27T17:43:22.553Z,101333.44
2022-12-27T17:45:56.833Z,101338.09
2022-12-27T17:48:29.199Z,101343.75
2022-12-27T17:51:02.496Z,101335.97
2022-12-27T17:53:49.511Z,101328.88
2022-12-27T17:56:40.124Z,101337.41
2022-12-27T17:59:11.377Z,101346.78
2022-12-27T18:01:45.657Z,101346.63
2022-12-27T18:04:23.153Z,101354.75
2022-12-27T18:06:55.691Z,101361.97
2022-12-27T18:09:38.321Z,101364.25
2022-12-27T18:12:13.328Z,101366.38
2022-12-27T18:14:41.958Z,101381.44
2022-12-27T18:17:28.461Z,101377.06
2022-12-27T18:19:57.164Z,101383.47
2022-12-27T18:22:30.330Z,101372.69
2022-12-27T18:25:01.156Z,101370.03
2022-12-27T18:27:29.091Z,101372.56
2022-12-27T18:29:57.044Z,101371.84
2022-12-27T18:32:26.643Z,101379.25
2022-12-27T18:34:58.892Z,101380.25
2022-12-27T18:37:28.251Z,101383.22
2022-12-27T18:40:00.287Z,101393.41
2022-12-27T18:42:34.471Z,101393.53
2022-12-27T18:45:05.557Z,101396.59
2022-12-27T18:47:39.585Z,101393.28
2022-12-27T18:50:18.327Z,101396.66
2022-12-27T18:52:51.291Z,101396.59
2022-12-27T18:55:26.954Z,101400.22
2022-12-27T18:58:05.025Z,101404.22
2022-12-27T19:00:33.257Z,101407.34
2022-12-27T19:03:14.941Z,101404.69
2022-12-27T19:05:59.589Z,101410.47
2022-12-27T19:08:31.194Z,101411.63
2022-12-27T19:10:59.212Z,101405.81
2022-12-27T19:13:30.596Z,101423.31
2022-12-27T19:15:59.997Z,101411.66
2022-12-27T19:18:32.103Z,101423.66
2022-12-27T19:21:01.764Z,101410.41
2022-12-27T19:23:32.951Z,101417.03
2022-12-27T19:26:08.944Z,101426.53
2022-12-27T19:28:38.405Z,101431.03
2022-12-27T19:31:17.628Z,101443.41
2022-12-27T19:33:49.326Z,101434.38
2022-12-27T19:36:18.116Z,101426.16
2022-12-27T19:38:48.171Z,101434.63
2022-12-27T19:41:16.365Z,101441.50
2022-12-27T19:43:47.666Z,101430.97
2022-12-27T19:46:19.137Z,101452.50
2022-12-27T19:49:07.668Z,101455.34
2022-12-27T19:51:36.364Z,101454.44
2022-12-27T19:54:06.896Z,101459.69
2022-12-27T19:56:34.960Z,101453.72
2022-12-27T19:59:04.354Z,101456.31
2022-12-27T20:01:32.451Z,101447.47
2022-12-27T20:04:00.482Z,101432.56
2022-12-27T20:06:29.446Z,101452.16
2022-12-27T20:08:58.210Z,101460.91
2022-12-27T20:11:27.783Z,101450.34
2022-12-27T20:13:55.960Z,101452.81
2022-12-27T20:16:25.428Z,101445.28
2022-12-27T20:18:53.534Z,101466.28
2022-12-27T20:21:22.043Z,101473.97
2022-12-27T20:23:50.530Z,101459.44
2022-12-27T20:26:20.786Z,101461.63
2022-12-27T20:28:49.791Z,101473.91
2022-12-27T20:31:20.521Z,101476.06
2022-12-27T20:33:54.374Z,101485.84
2022-12-27T20:36:22.464Z,101494.97
2022-12-27T20:38:50.541Z,101485.38
2022-12-27T20:41:20.653Z,101499.56
2022-12-27T20:43:48.620Z,101502.13
2022-12-27T20:46:18.190Z,101511.63
2022-12-27T20:48:47.647Z,101508.03
2022-12-27T20:51:19.033Z,101499.81
2022-12-27T20:53:49.174Z,101508.19
2022-12-27T20:56:17.556Z,101509.69
2022-12-27T20:58:45.499Z,101519.97
2022-12-27T21:01:15.799Z,101515.09
2022-12-27T21:03:44.750Z,101534.53
2022-12-27T21:06:14.475Z,101533.88
2022-12-27T21:08:48.985Z,101557.84
2022-12-27T21:11:24.112Z,101563.91
2022-12-27T21:13:52.102Z,101560.50
2022-12-27T21:16:22.087Z,101577.63
2022-12-27T21:18:51.061Z,101574.69
2022-12-27T21:21:21.020Z,101581.91
2022-12-27T21:23:50.958Z,101592.38
2022-12-27T21:26:21.001Z,101596.66
2022-12-27T21:28:49.795Z,101612.03
2022-12-27T21:31:19.254Z,101607.03
2022-12-27T21:33:47.512Z,101593.25
2022-12-27T21:36:17.900Z,101611.81
2022-12-27T21:38:46.086Z,101611.31
2022-12-27T21:41:17.532Z,101619.56
2022-12-27T21:43:47.240Z,101622.63
2022-12-27T21:46:16.955Z,101615.63
2022-12-27T21:48:45.072Z,101621.56
2022-12-27T21:51:15.288Z,101615.38
2022-12-27T21:53:44.376Z,101621.50
2022-12-27T21:56:12.930Z,101622.44
2022-12-27T21:58:43.351Z,101623.91
2022-12-27T22:01:14.209Z,101636.22
2022-12-27T22:03:44.005Z,101618.63
2022-12-27T22:06:13.086Z,101633.69
2022-12-27T22:08:41.118Z,101634.91
2022-12-27T22:11:10.093Z,101636.19
2022-12-27T22:13:38.436Z,101632.81
2022-12-27T22:16:11.260Z,101640.13
2022-12-27T22:18:41.532Z,101654.56
2022-12-27T22:21:10.900Z,101653.66
2022-12-27T22:23:40.799Z,101648.44
2022-12-27T22:26:12.388Z,101639.06
2022-12-27T22:28:40.704Z,101626.06
2022-12-27T22:31:12.371Z,101622.69
2022-12-27T22:33:40.451Z,101647.25
2022-12-27T22:36:11.947Z,101656.16
2022-12-27T22:38:40.721Z,101653.00
2022-12-27T22:41:11.671Z,101620.06
2022-12-27T22:43:39.925Z,101619.09
2022-12-27T22:46:10.684Z,101631.63
2022-12-27T22:48:38.815Z,101650.66
2022-12-27T22:51:08.963Z,101644.41
2022-12-27T22:53:37.270Z,101652.28
2022-12-27T22:56:05.542Z,101656.72
2022-12-27T22:58:33.930Z,101654.88
2022-12-27T23:01:01.909Z,101650.84
2022-12-27T23:03:31.249Z,101660.63
2022-12-27T23:06:00.195Z,101663.56
2022-12-27T23:08:28.232Z,101645.13
2022-12-27T23:11:02.008Z,101654.78
2022-12-27T23:13:29.995Z,101651.97
2022-12-27T23:15:58.936Z,101659.63
2022-12-27T23:18:28.049Z,101646.50
2022-12-27T23:21:22.775Z,101646.56
2022-12-27T23:23:45.651Z,101652.88
2022-12-27T23:26:16.652Z,101650.94
2022-12-27T23:28:46.951Z,101651.19
2022-12-27T23:31:15.422Z,101657.84
2022-12-27T23:33:44.499Z,101658.66
2022-12-27T23:36:14.989Z,101661.91
2022-12-27T23:38:43.781Z,101669.44
2022-12-27T23:41:15.930Z,101662.88
2022-12-27T23:43:53.279Z,101647.34
2022-12-27T23:46:23.791Z,101637.09
2022-12-27T23:48:52.699Z,101649.09
2022-12-27T23:51:22.869Z,101656.66
2022-12-27T23:53:50.901Z,101668.59
2022-12-27T23:56:22.157Z,101650.00
2022-12-27T23:58:51.209Z,101646.81
